ACA185 KLGA-CYYT
Flight info
| Callsign | ACA185 |
|---|---|
| Flight time | 2h 23m |
| Altitude | 33000 |
| Route | MERIT DCT HFD DCT PUT DCT TUSKY DCT KEVLU DCT FORTE DCT SUTKO DCT PERLU BURIN6 |
| Aircraft | A321/M-SDE3FGHIRWY/LB1 |
Departure
| Time | 2026-04-25 17:49 |
|---|---|
| Airport | LaGuardia Airport (KLGA) |
Arrival
| Time | 2026-04-25 20:12 |
|---|---|
| Airport | St. John's International Airport (CYYT) |
| Time | Latitude | Longitude | Altitude | Speed | Heading |
|---|---|---|---|---|---|
| 2026-04-25 17:14 | 40.77526 | -73.87117 | 21 ft | 0 kts | 308° |
| 2026-04-25 17:18 | 40.77525 | -73.87117 | 21 ft | 0 kts | 308° |
| 2026-04-25 17:21 | 40.77525 | -73.87116 | 21 ft | 0 kts | 308° |
| 2026-04-25 17:39 | 40.77522 | -73.87123 | 20 ft | 4 kts | 276° |
| 2026-04-25 17:40 | 40.77514 | -73.87100 | 20 ft | 4 kts | 316° |
| 2026-04-25 17:40 | 40.77494 | -73.87084 | 20 ft | 4 kts | 0° |
| 2026-04-25 17:40 | 40.77470 | -73.87091 | 20 ft | 2 kts | 27° |
| 2026-04-25 17:40 | 40.77468 | -73.87093 | 20 ft | 0 kts | 28° |
| 2026-04-25 17:43 | 40.77468 | -73.87092 | 20 ft | 1 kts | 28° |
| 2026-04-25 17:43 | 40.77500 | -73.87070 | 21 ft | 9 kts | 28° |
| 2026-04-25 17:43 | 40.77552 | -73.87034 | 22 ft | 8 kts | 28° |
| 2026-04-25 17:44 | 40.77604 | -73.86998 | 20 ft | 11 kts | 25° |
| 2026-04-25 17:44 | 40.77677 | -73.86992 | 20 ft | 10 kts | 14° |
| 2026-04-25 17:44 | 40.77724 | -73.87025 | 20 ft | 7 kts | 298° |
| 2026-04-25 17:44 | 40.77752 | -73.87086 | 21 ft | 10 kts | 302° |
| 2026-04-25 17:45 | 40.77799 | -73.87185 | 20 ft | 15 kts | 303° |
| 2026-04-25 17:45 | 40.77818 | -73.87223 | 21 ft | 14 kts | 303° |
| 2026-04-25 17:45 | 40.77895 | -73.87387 | 20 ft | 11 kts | 302° |
| 2026-04-25 17:45 | 40.77932 | -73.87466 | 19 ft | 10 kts | 302° |
| 2026-04-25 17:46 | 40.77972 | -73.87550 | 18 ft | 13 kts | 304° |
| 2026-04-25 17:46 | 40.78020 | -73.87648 | 19 ft | 11 kts | 302° |
| 2026-04-25 17:46 | 40.78057 | -73.87726 | 21 ft | 9 kts | 302° |
| 2026-04-25 17:46 | 40.78086 | -73.87787 | 20 ft | 7 kts | 302° |
| 2026-04-25 17:47 | 40.78109 | -73.87832 | 20 ft | 5 kts | 309° |
| 2026-04-25 17:47 | 40.78149 | -73.87864 | 19 ft | 7 kts | 338° |
| 2026-04-25 17:47 | 40.78195 | -73.87866 | 19 ft | 8 kts | 15° |
| 2026-04-25 17:47 | 40.78212 | -73.87822 | 18 ft | 5 kts | 108° |
| 2026-04-25 17:48 | 40.78143 | -73.87670 | 17 ft | 55 kts | 122° |
| 2026-04-25 17:48 | 40.77784 | -73.86917 | 20 ft | 132 kts | 122° |
| 2026-04-25 17:48 | 40.77215 | -73.85717 | 355 ft | 162 kts | 122° |
| 2026-04-25 17:49 | 40.76643 | -73.84474 | 1316 ft | 157 kts | 121° |
| 2026-04-25 17:49 | 40.76082 | -73.83254 | 2116 ft | 153 kts | 121° |
| 2026-04-25 17:49 | 40.75539 | -73.81988 | 2394 ft | 167 kts | 110° |
| 2026-04-25 17:49 | 40.75601 | -73.80403 | 2521 ft | 193 kts | 65° |
| 2026-04-25 17:50 | 40.76570 | -73.79011 | 2694 ft | 219 kts | 43° |
| 2026-04-25 17:50 | 40.77809 | -73.77725 | 3191 ft | 229 kts | 39° |
| 2026-04-25 17:50 | 40.79086 | -73.76474 | 3917 ft | 230 kts | 39° |
| 2026-04-25 17:50 | 40.80414 | -73.75133 | 4206 ft | 250 kts | 40° |
| 2026-04-25 17:51 | 40.81800 | -73.73683 | 4679 ft | 262 kts | 39° |
| 2026-04-25 17:51 | 40.83238 | -73.72169 | 5366 ft | 267 kts | 39° |
| 2026-04-25 17:51 | 40.84697 | -73.70638 | 6044 ft | 271 kts | 38° |
| 2026-04-25 17:51 | 40.86188 | -73.69066 | 6772 ft | 276 kts | 39° |
| 2026-04-25 17:52 | 40.87700 | -73.67473 | 7459 ft | 280 kts | 39° |
| 2026-04-25 17:52 | 40.88196 | -73.66947 | 7665 ft | 282 kts | 39° |
| 2026-04-25 17:52 | 40.90799 | -73.64179 | 8718 ft | 292 kts | 38° |
| 2026-04-25 17:52 | 40.92385 | -73.62491 | 9358 ft | 294 kts | 37° |
| 2026-04-25 17:53 | 40.93975 | -73.60827 | 9973 ft | 296 kts | 37° |
| 2026-04-25 17:53 | 40.95619 | -73.59106 | 10365 ft | 310 kts | 36° |
| 2026-04-25 17:53 | 40.97371 | -73.57266 | 10479 ft | 330 kts | 36° |
| 2026-04-25 17:53 | 40.99225 | -73.55301 | 10610 ft | 351 kts | 37° |
| 2026-04-25 17:54 | 41.01167 | -73.53234 | 10725 ft | 366 kts | 36° |
| 2026-04-25 17:54 | 41.03220 | -73.51056 | 10862 ft | 385 kts | 36° |
| 2026-04-25 17:54 | 41.05341 | -73.48803 | 11108 ft | 395 kts | 36° |
| 2026-04-25 17:54 | 41.07473 | -73.46548 | 11541 ft | 397 kts | 36° |
| 2026-04-25 17:55 | 41.09641 | -73.44249 | 11973 ft | 400 kts | 35° |
| 2026-04-25 17:55 | 41.11832 | -73.41927 | 12462 ft | 404 kts | 35° |
| 2026-04-25 17:55 | 41.14044 | -73.39581 | 12959 ft | 407 kts | 35° |
| 2026-04-25 17:55 | 41.16272 | -73.37215 | 13432 ft | 411 kts | 34° |
| 2026-04-25 17:56 | 41.18483 | -73.34863 | 13915 ft | 414 kts | 34° |
| 2026-04-25 17:56 | 41.20743 | -73.32456 | 14385 ft | 417 kts | 34° |
| 2026-04-25 17:56 | 41.23009 | -73.30036 | 14841 ft | 420 kts | 34° |
| 2026-04-25 17:56 | 41.25300 | -73.27585 | 15298 ft | 423 kts | 34° |
| 2026-04-25 17:57 | 41.27595 | -73.25133 | 15729 ft | 425 kts | 33° |
| 2026-04-25 17:57 | 41.29914 | -73.22658 | 16126 ft | 429 kts | 33° |
| 2026-04-25 17:57 | 41.32250 | -73.20155 | 16546 ft | 432 kts | 34° |
| 2026-04-25 17:57 | 41.33026 | -73.19275 | 16683 ft | 435 kts | 37° |
| 2026-04-25 17:58 | 41.35846 | -73.13591 | 17301 ft | 459 kts | 66° |
| 2026-04-25 17:58 | 41.36487 | -73.09373 | 17646 ft | 471 kts | 84° |
| 2026-04-25 17:58 | 41.36218 | -73.04983 | 17997 ft | 482 kts | 101° |
| 2026-04-25 17:58 | 41.35044 | -73.00786 | 18327 ft | 488 kts | 118° |
| 2026-04-25 17:59 | 41.33048 | -72.97128 | 18646 ft | 491 kts | 135° |
| 2026-04-25 17:59 | 41.30383 | -72.94307 | 18957 ft | 490 kts | 153° |
| 2026-04-25 17:59 | 41.27271 | -72.92558 | 19287 ft | 484 kts | 170° |
| 2026-04-25 17:59 | 41.23964 | -72.92006 | 19592 ft | 475 kts | 186° |
| 2026-04-25 18:00 | 41.20668 | -72.92117 | 19875 ft | 479 kts | 182° |
| 2026-04-25 18:00 | 41.17339 | -72.91340 | 20135 ft | 494 kts | 166° |
| 2026-04-25 18:00 | 41.14185 | -72.89424 | 20420 ft | 504 kts | 150° |
| 2026-04-25 18:00 | 41.11459 | -72.86481 | 20709 ft | 511 kts | 133° |
| 2026-04-25 18:01 | 41.09376 | -72.82657 | 20984 ft | 513 kts | 116° |
| 2026-04-25 18:01 | 41.08119 | -72.78248 | 21247 ft | 512 kts | 99° |
| 2026-04-25 18:01 | 41.07760 | -72.73598 | 21514 ft | 505 kts | 83° |
| 2026-04-25 18:01 | 41.08290 | -72.69031 | 21755 ft | 496 kts | 67° |
| 2026-04-25 18:02 | 41.09614 | -72.64933 | 22022 ft | 485 kts | 52° |
| 2026-04-25 18:02 | 41.11620 | -72.61432 | 22296 ft | 471 kts | 37° |
| 2026-04-25 18:02 | 41.14120 | -72.58703 | 22530 ft | 460 kts | 26° |
| 2026-04-25 18:02 | 41.16778 | -72.56320 | 22806 ft | 462 kts | 26° |
| 2026-04-25 18:03 | 41.19450 | -72.53933 | 23088 ft | 464 kts | 26° |
| 2026-04-25 18:03 | 41.22129 | -72.51536 | 23361 ft | 466 kts | 26° |
| 2026-04-25 18:03 | 41.23947 | -72.49904 | 23552 ft | 467 kts | 26° |
| 2026-04-25 18:03 | 41.26646 | -72.47469 | 23828 ft | 469 kts | 26° |
| 2026-04-25 18:04 | 41.30231 | -72.44218 | 24190 ft | 471 kts | 26° |
| 2026-04-25 18:04 | 41.32062 | -72.42558 | 24301 ft | 474 kts | 26° |
| 2026-04-25 18:04 | 41.34807 | -72.40074 | 24445 ft | 479 kts | 27° |
| 2026-04-25 18:04 | 41.37575 | -72.37569 | 24643 ft | 482 kts | 26° |
| 2026-04-25 18:05 | 41.40344 | -72.35053 | 24935 ft | 483 kts | 27° |
| 2026-04-25 18:05 | 41.43123 | -72.32524 | 25253 ft | 483 kts | 27° |
| 2026-04-25 18:05 | 41.45859 | -72.30036 | 25639 ft | 481 kts | 26° |
| 2026-04-25 18:05 | 41.48615 | -72.27529 | 26015 ft | 481 kts | 26° |
| 2026-04-25 18:06 | 41.51371 | -72.25019 | 26406 ft | 478 kts | 26° |
| 2026-04-25 18:06 | 41.54111 | -72.22518 | 26791 ft | 476 kts | 26° |
| 2026-04-25 18:06 | 41.56840 | -72.20024 | 27165 ft | 474 kts | 26° |
| 2026-04-25 18:06 | 41.59554 | -72.17544 | 27551 ft | 472 kts | 26° |
| 2026-04-25 18:07 | 41.62260 | -72.15071 | 27889 ft | 471 kts | 26° |
| 2026-04-25 18:07 | 41.64956 | -72.12604 | 28250 ft | 468 kts | 26° |
| 2026-04-25 18:07 | 41.67641 | -72.10141 | 28596 ft | 467 kts | 26° |
| 2026-04-25 18:07 | 41.70311 | -72.07685 | 28926 ft | 465 kts | 26° |
| 2026-04-25 18:08 | 41.72970 | -72.05235 | 29249 ft | 463 kts | 25° |
| 2026-04-25 18:08 | 41.75621 | -72.02805 | 29580 ft | 461 kts | 25° |
| 2026-04-25 18:08 | 41.78269 | -72.00377 | 29889 ft | 460 kts | 25° |
| 2026-04-25 18:08 | 41.80901 | -71.97956 | 30225 ft | 457 kts | 25° |
| 2026-04-25 18:09 | 41.83514 | -71.95546 | 30541 ft | 456 kts | 25° |
| 2026-04-25 18:09 | 41.86124 | -71.93135 | 30821 ft | 455 kts | 25° |
| 2026-04-25 18:09 | 41.88732 | -71.90721 | 31126 ft | 454 kts | 25° |
| 2026-04-25 18:09 | 41.90449 | -71.89131 | 31316 ft | 453 kts | 25° |
| 2026-04-25 18:10 | 41.93792 | -71.85624 | 31686 ft | 463 kts | 35° |
| 2026-04-25 18:10 | 41.95944 | -71.82343 | 31928 ft | 475 kts | 45° |
| 2026-04-25 18:10 | 41.97698 | -71.78529 | 32181 ft | 485 kts | 56° |
| 2026-04-25 18:10 | 41.99177 | -71.74442 | 32422 ft | 487 kts | 56° |
| 2026-04-25 18:11 | 42.00653 | -71.70341 | 32676 ft | 486 kts | 56° |
| 2026-04-25 18:11 | 42.02124 | -71.66243 | 32924 ft | 487 kts | 55° |
| 2026-04-25 18:11 | 42.03597 | -71.62135 | 33086 ft | 486 kts | 56° |
| 2026-04-25 18:12 | 42.06529 | -71.53958 | 33119 ft | 484 kts | 55° |
| 2026-04-25 18:12 | 42.09452 | -71.45797 | 33111 ft | 484 kts | 55° |
| 2026-04-25 18:13 | 42.12368 | -71.37624 | 33129 ft | 483 kts | 55° |
| 2026-04-25 18:13 | 42.15271 | -71.29459 | 33128 ft | 483 kts | 55° |
| 2026-04-25 18:14 | 42.19613 | -71.17201 | 33138 ft | 483 kts | 55° |
| 2026-04-25 18:14 | 42.22506 | -71.09041 | 33139 ft | 481 kts | 54° |
| 2026-04-25 18:15 | 42.25368 | -71.00924 | 33146 ft | 481 kts | 54° |
| 2026-04-25 18:15 | 42.28229 | -70.92753 | 33146 ft | 481 kts | 54° |
| 2026-04-25 18:16 | 42.31094 | -70.84588 | 33148 ft | 480 kts | 54° |
| 2026-04-25 18:17 | 42.35367 | -70.72371 | 33146 ft | 479 kts | 54° |
| 2026-04-25 18:17 | 42.38194 | -70.64221 | 33141 ft | 478 kts | 54° |
| 2026-04-25 18:18 | 42.41021 | -70.56077 | 33147 ft | 478 kts | 54° |
| 2026-04-25 18:18 | 42.43843 | -70.47922 | 33146 ft | 477 kts | 54° |
| 2026-04-25 18:19 | 42.46647 | -70.39776 | 33145 ft | 477 kts | 54° |
| 2026-04-25 18:19 | 42.49444 | -70.31617 | 33144 ft | 477 kts | 54° |
| 2026-04-25 18:20 | 42.52246 | -70.23457 | 33147 ft | 477 kts | 54° |
| 2026-04-25 18:20 | 42.55034 | -70.15296 | 33146 ft | 476 kts | 54° |
| 2026-04-25 18:21 | 42.57792 | -70.07190 | 33146 ft | 476 kts | 54° |
| 2026-04-25 18:21 | 42.60564 | -69.99026 | 33149 ft | 476 kts | 54° |
| 2026-04-25 18:22 | 42.63331 | -69.90849 | 33147 ft | 476 kts | 54° |
| 2026-04-25 18:22 | 42.66098 | -69.82664 | 33136 ft | 477 kts | 54° |
| 2026-04-25 18:23 | 42.68851 | -69.74465 | 33150 ft | 476 kts | 54° |
| 2026-04-25 18:23 | 42.71595 | -69.66281 | 33137 ft | 476 kts | 54° |
| 2026-04-25 18:24 | 42.74345 | -69.58071 | 33136 ft | 477 kts | 54° |
| 2026-04-25 18:24 | 42.77085 | -69.49852 | 33135 ft | 477 kts | 54° |
| 2026-04-25 18:25 | 42.79817 | -69.41616 | 33137 ft | 477 kts | 54° |
| 2026-04-25 18:25 | 42.82553 | -69.33377 | 33125 ft | 477 kts | 54° |
| 2026-04-25 18:26 | 42.85280 | -69.25133 | 33127 ft | 477 kts | 54° |
| 2026-04-25 18:26 | 42.88004 | -69.16887 | 33131 ft | 476 kts | 54° |
| 2026-04-25 18:27 | 42.90722 | -69.08619 | 33119 ft | 478 kts | 54° |
| 2026-04-25 18:27 | 42.93421 | -69.00335 | 33104 ft | 477 kts | 55° |
| 2026-04-25 18:28 | 42.96104 | -68.92093 | 33111 ft | 478 kts | 55° |
| 2026-04-25 18:28 | 42.98809 | -68.83805 | 33105 ft | 477 kts | 55° |
| 2026-04-25 18:29 | 43.02844 | -68.71367 | 33102 ft | 477 kts | 55° |
| 2026-04-25 18:30 | 43.08205 | -68.54712 | 33102 ft | 478 kts | 56° |
| 2026-04-25 18:30 | 43.10882 | -68.46386 | 33100 ft | 478 kts | 56° |
| 2026-04-25 18:31 | 43.13552 | -68.38059 | 33090 ft | 478 kts | 56° |
| 2026-04-25 18:31 | 43.16214 | -68.29711 | 33100 ft | 478 kts | 56° |
| 2026-04-25 18:32 | 43.18856 | -68.21393 | 33095 ft | 478 kts | 56° |
| 2026-04-25 18:32 | 43.21498 | -68.13040 | 33092 ft | 478 kts | 57° |
| 2026-04-25 18:33 | 43.24147 | -68.04665 | 33066 ft | 478 kts | 57° |
| 2026-04-25 18:33 | 43.26783 | -67.96297 | 33063 ft | 477 kts | 57° |
| 2026-04-25 18:34 | 43.29403 | -67.87927 | 33056 ft | 477 kts | 58° |
| 2026-04-25 18:34 | 43.32023 | -67.79559 | 33054 ft | 477 kts | 58° |
| 2026-04-25 18:35 | 43.34635 | -67.71187 | 33052 ft | 477 kts | 58° |
| 2026-04-25 18:35 | 43.37223 | -67.62859 | 33054 ft | 476 kts | 59° |
| 2026-04-25 18:36 | 43.39825 | -67.54467 | 33054 ft | 477 kts | 58° |
| 2026-04-25 18:36 | 43.42416 | -67.46083 | 33046 ft | 476 kts | 59° |
| 2026-04-25 18:37 | 43.44995 | -67.37681 | 33035 ft | 475 kts | 59° |
| 2026-04-25 18:37 | 43.47567 | -67.29291 | 33045 ft | 476 kts | 59° |
| 2026-04-25 18:38 | 43.50147 | -67.20878 | 33046 ft | 476 kts | 59° |
| 2026-04-25 18:38 | 43.52720 | -67.12447 | 33038 ft | 477 kts | 60° |
| 2026-04-25 18:39 | 43.55264 | -67.04070 | 33038 ft | 476 kts | 60° |
| 2026-04-25 18:39 | 43.57830 | -66.95669 | 33036 ft | 475 kts | 59° |
| 2026-04-25 18:40 | 43.60504 | -66.87354 | 33031 ft | 473 kts | 59° |
| 2026-04-25 18:40 | 43.63196 | -66.79068 | 33036 ft | 473 kts | 59° |
| 2026-04-25 18:41 | 43.65868 | -66.70766 | 33034 ft | 473 kts | 60° |
| 2026-04-25 18:41 | 43.68508 | -66.62449 | 33024 ft | 471 kts | 61° |
| 2026-04-25 18:42 | 43.70237 | -66.56949 | 33028 ft | 471 kts | 61° |
| 2026-04-25 18:42 | 43.73734 | -66.45815 | 33028 ft | 472 kts | 62° |
| 2026-04-25 18:43 | 43.76345 | -66.37501 | 33027 ft | 470 kts | 62° |
| 2026-04-25 18:43 | 43.78935 | -66.29257 | 33025 ft | 470 kts | 62° |
| 2026-04-25 18:44 | 43.81538 | -66.20955 | 33024 ft | 470 kts | 63° |
| 2026-04-25 18:44 | 43.84119 | -66.12642 | 33027 ft | 469 kts | 63° |
| 2026-04-25 18:45 | 43.86281 | -66.05683 | 33029 ft | 469 kts | 63° |
| 2026-04-25 18:45 | 43.88850 | -65.97360 | 33024 ft | 469 kts | 63° |
| 2026-04-25 18:46 | 43.91405 | -65.89036 | 33022 ft | 468 kts | 63° |
| 2026-04-25 18:46 | 43.93958 | -65.80768 | 33026 ft | 469 kts | 63° |
| 2026-04-25 18:47 | 43.96514 | -65.72440 | 33022 ft | 469 kts | 63° |
| 2026-04-25 18:47 | 43.99064 | -65.64102 | 33027 ft | 468 kts | 63° |
| 2026-04-25 18:48 | 44.01611 | -65.55777 | 33024 ft | 468 kts | 63° |
| 2026-04-25 18:48 | 44.04138 | -65.47451 | 33026 ft | 467 kts | 64° |
| 2026-04-25 18:49 | 44.06652 | -65.39122 | 33015 ft | 466 kts | 64° |
| 2026-04-25 18:49 | 44.09154 | -65.30805 | 33016 ft | 465 kts | 64° |
| 2026-04-25 18:50 | 44.11630 | -65.22562 | 33017 ft | 464 kts | 64° |
| 2026-04-25 18:50 | 44.14118 | -65.14264 | 33011 ft | 463 kts | 64° |
| 2026-04-25 18:51 | 44.16188 | -65.07328 | 33007 ft | 463 kts | 64° |
| 2026-04-25 18:51 | 44.19052 | -64.97719 | 33006 ft | 461 kts | 64° |
| 2026-04-25 18:52 | 44.21504 | -64.89453 | 33009 ft | 461 kts | 64° |
| 2026-04-25 18:52 | 44.23950 | -64.81204 | 32997 ft | 460 kts | 64° |
| 2026-04-25 18:53 | 44.26389 | -64.72959 | 32984 ft | 459 kts | 64° |
| 2026-04-25 18:53 | 44.28808 | -64.64705 | 32989 ft | 459 kts | 64° |
| 2026-04-25 18:54 | 44.32422 | -64.52345 | 32976 ft | 458 kts | 64° |
| 2026-04-25 18:55 | 44.34825 | -64.44099 | 32974 ft | 458 kts | 65° |
| 2026-04-25 18:55 | 44.37218 | -64.35847 | 32979 ft | 457 kts | 65° |
| 2026-04-25 18:56 | 44.39614 | -64.27599 | 32964 ft | 457 kts | 65° |
| 2026-04-25 18:56 | 44.41998 | -64.19336 | 32973 ft | 458 kts | 65° |
| 2026-04-25 18:57 | 44.44493 | -64.11145 | 32962 ft | 457 kts | 63° |
| 2026-04-25 18:57 | 44.47150 | -64.03063 | 32954 ft | 457 kts | 62° |
| 2026-04-25 18:58 | 44.49809 | -63.94975 | 32955 ft | 457 kts | 62° |
| 2026-04-25 18:58 | 44.53715 | -63.82790 | 32952 ft | 457 kts | 63° |
| 2026-04-25 18:59 | 44.58881 | -63.66522 | 32943 ft | 456 kts | 63° |
| 2026-04-25 19:00 | 44.62726 | -63.54366 | 32931 ft | 456 kts | 63° |
| 2026-04-25 19:01 | 44.66571 | -63.42152 | 32936 ft | 456 kts | 63° |
| 2026-04-25 19:01 | 44.69119 | -63.34013 | 32934 ft | 456 kts | 63° |
| 2026-04-25 19:02 | 44.72938 | -63.21751 | 32933 ft | 456 kts | 63° |
| 2026-04-25 19:03 | 44.75902 | -63.12205 | 32934 ft | 456 kts | 63° |
| 2026-04-25 19:03 | 44.79287 | -63.01320 | 32926 ft | 455 kts | 63° |
| 2026-04-25 19:04 | 44.83072 | -62.89043 | 32925 ft | 456 kts | 63° |
| 2026-04-25 19:05 | 44.88104 | -62.72628 | 32913 ft | 456 kts | 64° |
| 2026-04-25 19:06 | 44.90608 | -62.64421 | 32917 ft | 456 kts | 63° |
| 2026-04-25 19:06 | 44.94354 | -62.52089 | 32910 ft | 457 kts | 63° |
| 2026-04-25 19:07 | 44.98076 | -62.39770 | 32907 ft | 456 kts | 64° |
| 2026-04-25 19:08 | 45.01801 | -62.27397 | 32884 ft | 455 kts | 64° |
| 2026-04-25 19:09 | 45.06342 | -62.12222 | 32876 ft | 456 kts | 64° |
| 2026-04-25 19:10 | 45.10431 | -61.98492 | 32869 ft | 455 kts | 64° |
| 2026-04-25 19:10 | 45.12888 | -61.90221 | 32857 ft | 455 kts | 64° |
| 2026-04-25 19:11 | 45.15333 | -61.81948 | 32864 ft | 455 kts | 64° |
| 2026-04-25 19:11 | 45.17771 | -61.73676 | 32850 ft | 455 kts | 64° |
| 2026-04-25 19:12 | 45.20205 | -61.65384 | 32850 ft | 455 kts | 64° |
| 2026-04-25 19:12 | 45.22624 | -61.57085 | 32839 ft | 455 kts | 64° |
| 2026-04-25 19:13 | 45.25040 | -61.48788 | 32847 ft | 455 kts | 64° |
| 2026-04-25 19:13 | 45.27442 | -61.40500 | 32846 ft | 454 kts | 64° |
| 2026-04-25 19:14 | 45.29852 | -61.32197 | 32837 ft | 455 kts | 64° |
| 2026-04-25 19:14 | 45.32252 | -61.23883 | 32836 ft | 455 kts | 64° |
| 2026-04-25 19:15 | 45.34648 | -61.15550 | 32830 ft | 455 kts | 64° |
| 2026-04-25 19:15 | 45.37016 | -61.07275 | 32838 ft | 455 kts | 64° |
| 2026-04-25 19:16 | 45.39392 | -60.98965 | 32824 ft | 454 kts | 64° |
| 2026-04-25 19:16 | 45.41773 | -60.90611 | 32823 ft | 455 kts | 64° |
| 2026-04-25 19:17 | 45.44144 | -60.82243 | 32821 ft | 455 kts | 64° |
| 2026-04-25 19:17 | 45.46496 | -60.73876 | 32824 ft | 455 kts | 64° |
| 2026-04-25 19:18 | 45.48855 | -60.65499 | 32819 ft | 455 kts | 64° |
| 2026-04-25 19:18 | 45.51210 | -60.57131 | 32810 ft | 455 kts | 64° |
| 2026-04-25 19:19 | 45.53565 | -60.48763 | 32813 ft | 455 kts | 64° |
| 2026-04-25 19:19 | 45.55905 | -60.40368 | 32805 ft | 455 kts | 64° |
| 2026-04-25 19:20 | 45.58220 | -60.32034 | 32797 ft | 454 kts | 64° |
| 2026-04-25 19:20 | 45.60543 | -60.23638 | 32805 ft | 454 kts | 64° |
| 2026-04-25 19:21 | 45.62860 | -60.15232 | 32795 ft | 455 kts | 64° |
| 2026-04-25 19:21 | 45.66327 | -60.02605 | 32791 ft | 456 kts | 64° |
| 2026-04-25 19:22 | 45.68638 | -59.94169 | 32766 ft | 455 kts | 64° |
| 2026-04-25 19:23 | 45.72089 | -59.81521 | 32776 ft | 455 kts | 64° |
| 2026-04-25 19:23 | 45.75508 | -59.68836 | 32780 ft | 455 kts | 65° |
| 2026-04-25 19:24 | 45.77795 | -59.60381 | 32773 ft | 455 kts | 65° |
| 2026-04-25 19:25 | 45.82361 | -59.43422 | 32773 ft | 456 kts | 65° |
| 2026-04-25 19:25 | 45.84613 | -59.34923 | 32778 ft | 456 kts | 65° |
| 2026-04-25 19:26 | 45.86486 | -59.27854 | 32771 ft | 456 kts | 65° |
| 2026-04-25 19:26 | 45.89115 | -59.17975 | 32748 ft | 456 kts | 65° |
| 2026-04-25 19:27 | 45.90629 | -59.12282 | 32758 ft | 456 kts | 65° |
| 2026-04-25 19:27 | 45.93254 | -59.02324 | 32759 ft | 456 kts | 65° |
| 2026-04-25 19:28 | 45.95487 | -58.93792 | 32748 ft | 456 kts | 65° |
| 2026-04-25 19:28 | 45.97720 | -58.85250 | 32744 ft | 457 kts | 65° |
| 2026-04-25 19:29 | 45.99942 | -58.76698 | 32739 ft | 457 kts | 66° |
| 2026-04-25 19:29 | 46.02159 | -58.68129 | 32736 ft | 457 kts | 66° |
| 2026-04-25 19:30 | 46.04362 | -58.59600 | 32718 ft | 457 kts | 66° |
| 2026-04-25 19:30 | 46.06579 | -58.51011 | 32726 ft | 458 kts | 66° |
| 2026-04-25 19:31 | 46.08786 | -58.42410 | 32708 ft | 458 kts | 66° |
| 2026-04-25 19:31 | 46.10988 | -58.33801 | 32703 ft | 458 kts | 66° |
| 2026-04-25 19:32 | 46.13178 | -58.25178 | 32699 ft | 458 kts | 66° |
| 2026-04-25 19:32 | 46.14996 | -58.18005 | 32690 ft | 458 kts | 66° |
| 2026-04-25 19:33 | 46.17552 | -58.07902 | 32682 ft | 458 kts | 66° |
| 2026-04-25 19:33 | 46.19732 | -57.99256 | 32677 ft | 458 kts | 66° |
| 2026-04-25 19:34 | 46.21893 | -57.90639 | 32683 ft | 459 kts | 66° |
| 2026-04-25 19:34 | 46.24057 | -57.81964 | 32672 ft | 458 kts | 66° |
| 2026-04-25 19:35 | 46.26223 | -57.73299 | 32651 ft | 458 kts | 66° |
| 2026-04-25 19:35 | 46.28379 | -57.64636 | 32645 ft | 458 kts | 66° |
| 2026-04-25 19:36 | 46.30723 | -57.56090 | 32639 ft | 456 kts | 64° |
| 2026-04-25 19:36 | 46.33211 | -57.47643 | 32628 ft | 456 kts | 63° |
| 2026-04-25 19:37 | 46.35674 | -57.39177 | 32615 ft | 457 kts | 64° |
| 2026-04-25 19:37 | 46.38078 | -57.30640 | 32588 ft | 457 kts | 64° |
| 2026-04-25 19:38 | 46.40451 | -57.22177 | 32581 ft | 457 kts | 64° |
| 2026-04-25 19:38 | 46.42841 | -57.13655 | 32578 ft | 456 kts | 65° |
| 2026-04-25 19:39 | 46.45224 | -57.05121 | 32569 ft | 456 kts | 64° |
| 2026-04-25 19:39 | 46.47593 | -56.96575 | 32560 ft | 456 kts | 65° |
| 2026-04-25 19:40 | 46.49961 | -56.88043 | 32558 ft | 456 kts | 64° |
| 2026-04-25 19:40 | 46.52330 | -56.79502 | 32552 ft | 455 kts | 64° |
| 2026-04-25 19:41 | 46.54800 | -56.71042 | 32550 ft | 455 kts | 63° |
| 2026-04-25 19:41 | 46.56897 | -56.64031 | 32541 ft | 455 kts | 63° |
| 2026-04-25 19:42 | 46.59799 | -56.54203 | 32542 ft | 455 kts | 63° |
| 2026-04-25 19:42 | 46.62268 | -56.45732 | 32542 ft | 455 kts | 63° |
| 2026-04-25 19:43 | 46.64724 | -56.37248 | 32533 ft | 455 kts | 64° |
| 2026-04-25 19:43 | 46.67169 | -56.28764 | 32533 ft | 454 kts | 64° |
| 2026-04-25 19:44 | 46.69623 | -56.20283 | 32533 ft | 454 kts | 64° |
| 2026-04-25 19:44 | 46.72071 | -56.11797 | 32531 ft | 454 kts | 64° |
| 2026-04-25 19:45 | 46.74488 | -56.03336 | 32533 ft | 454 kts | 64° |
| 2026-04-25 19:45 | 46.76912 | -55.94845 | 32532 ft | 453 kts | 64° |
| 2026-04-25 19:46 | 46.79338 | -55.86349 | 32530 ft | 453 kts | 64° |
| 2026-04-25 19:46 | 46.81747 | -55.77863 | 32534 ft | 452 kts | 64° |
| 2026-04-25 19:47 | 46.84129 | -55.69384 | 32535 ft | 452 kts | 64° |
| 2026-04-25 19:47 | 46.86505 | -55.60900 | 32530 ft | 451 kts | 64° |
| 2026-04-25 19:48 | 46.88886 | -55.52412 | 32421 ft | 452 kts | 64° |
| 2026-04-25 19:48 | 46.90064 | -55.48220 | 32172 ft | 451 kts | 64° |
| 2026-04-25 19:48 | 46.91266 | -55.43927 | 31928 ft | 450 kts | 64° |
| 2026-04-25 19:49 | 46.92436 | -55.39733 | 31679 ft | 450 kts | 64° |
| 2026-04-25 19:49 | 46.92835 | -55.38300 | 31595 ft | 450 kts | 64° |
| 2026-04-25 19:49 | 46.94794 | -55.31247 | 31183 ft | 450 kts | 64° |
| 2026-04-25 19:49 | 46.95973 | -55.26998 | 30933 ft | 449 kts | 64° |
| 2026-04-25 19:50 | 46.98321 | -55.18524 | 30431 ft | 448 kts | 64° |
| 2026-04-25 19:50 | 46.99487 | -55.14292 | 30182 ft | 448 kts | 64° |
| 2026-04-25 19:50 | 47.00652 | -55.10060 | 29933 ft | 448 kts | 64° |
| 2026-04-25 19:51 | 47.01817 | -55.05821 | 29682 ft | 448 kts | 64° |
| 2026-04-25 19:51 | 47.02977 | -55.01579 | 29436 ft | 448 kts | 64° |
| 2026-04-25 19:51 | 47.04138 | -54.97333 | 28594 ft | 451 kts | 64° |
| 2026-04-25 19:51 | 47.05312 | -54.93035 | 27762 ft | 453 kts | 64° |
| 2026-04-25 19:52 | 47.06473 | -54.88778 | 27259 ft | 447 kts | 64° |
| 2026-04-25 19:52 | 47.07623 | -54.84559 | 26644 ft | 444 kts | 64° |
| 2026-04-25 19:52 | 47.08765 | -54.80366 | 26036 ft | 440 kts | 64° |
| 2026-04-25 19:52 | 47.09892 | -54.76212 | 25443 ft | 436 kts | 64° |
| 2026-04-25 19:53 | 47.11002 | -54.72097 | 24825 ft | 431 kts | 64° |
| 2026-04-25 19:53 | 47.12103 | -54.68017 | 24257 ft | 428 kts | 64° |
| 2026-04-25 19:53 | 47.13198 | -54.63980 | 23682 ft | 424 kts | 63° |
| 2026-04-25 19:53 | 47.14284 | -54.59985 | 23118 ft | 419 kts | 64° |
| 2026-04-25 19:54 | 47.15352 | -54.56032 | 22573 ft | 413 kts | 63° |
| 2026-04-25 19:54 | 47.16404 | -54.52123 | 22026 ft | 409 kts | 64° |
| 2026-04-25 19:54 | 47.17437 | -54.48258 | 21527 ft | 404 kts | 64° |
| 2026-04-25 19:54 | 47.17770 | -54.47009 | 21365 ft | 402 kts | 64° |
| 2026-04-25 19:55 | 47.19436 | -54.40739 | 20586 ft | 391 kts | 64° |
| 2026-04-25 19:55 | 47.20421 | -54.37046 | 20124 ft | 384 kts | 64° |
| 2026-04-25 19:55 | 47.21388 | -54.33428 | 19701 ft | 377 kts | 64° |
| 2026-04-25 19:55 | 47.22339 | -54.29877 | 19275 ft | 369 kts | 64° |
| 2026-04-25 19:56 | 47.23268 | -54.26389 | 18873 ft | 363 kts | 64° |
| 2026-04-25 19:56 | 47.24177 | -54.22953 | 18478 ft | 357 kts | 64° |
| 2026-04-25 19:56 | 47.25067 | -54.19570 | 18085 ft | 352 kts | 64° |
| 2026-04-25 19:56 | 47.25945 | -54.16233 | 17676 ft | 347 kts | 64° |
| 2026-04-25 19:57 | 47.26807 | -54.12959 | 17477 ft | 337 kts | 64° |
| 2026-04-25 19:57 | 47.27682 | -54.09663 | 17226 ft | 359 kts | 64° |
| 2026-04-25 19:57 | 47.28614 | -54.06164 | 16975 ft | 369 kts | 64° |
| 2026-04-25 19:57 | 47.29574 | -54.02653 | 16625 ft | 369 kts | 63° |
| 2026-04-25 19:58 | 47.30608 | -53.99228 | 16148 ft | 364 kts | 61° |
| 2026-04-25 19:58 | 47.31683 | -53.95879 | 15684 ft | 358 kts | 60° |
| 2026-04-25 19:58 | 47.32764 | -53.92595 | 15187 ft | 354 kts | 60° |
| 2026-04-25 19:58 | 47.33833 | -53.89344 | 14698 ft | 349 kts | 60° |
| 2026-04-25 19:59 | 47.34873 | -53.86127 | 14225 ft | 345 kts | 60° |
| 2026-04-25 19:59 | 47.35893 | -53.82941 | 13750 ft | 341 kts | 60° |
| 2026-04-25 19:59 | 47.36900 | -53.79792 | 13286 ft | 337 kts | 61° |
| 2026-04-25 19:59 | 47.37892 | -53.76672 | 12796 ft | 335 kts | 60° |
| 2026-04-25 20:00 | 47.38874 | -53.73574 | 12297 ft | 329 kts | 60° |
| 2026-04-25 20:00 | 47.39201 | -53.72539 | 12140 ft | 330 kts | 60° |
| 2026-04-25 20:00 | 47.40805 | -53.67451 | 11339 ft | 329 kts | 60° |
| 2026-04-25 20:00 | 47.41774 | -53.64371 | 10859 ft | 331 kts | 60° |
| 2026-04-25 20:01 | 47.43643 | -53.58409 | 10551 ft | 308 kts | 60° |
| 2026-04-25 20:01 | 47.44525 | -53.55585 | 10441 ft | 299 kts | 61° |
| 2026-04-25 20:01 | 47.45374 | -53.52852 | 10294 ft | 288 kts | 60° |
| 2026-04-25 20:02 | 47.46174 | -53.50255 | 10045 ft | 269 kts | 60° |
| 2026-04-25 20:02 | 47.46931 | -53.47779 | 9872 ft | 267 kts | 60° |
| 2026-04-25 20:02 | 47.47694 | -53.45292 | 9754 ft | 265 kts | 59° |
| 2026-04-25 20:02 | 47.48469 | -53.42805 | 9345 ft | 268 kts | 60° |
| 2026-04-25 20:03 | 47.49258 | -53.40311 | 8866 ft | 267 kts | 60° |
| 2026-04-25 20:03 | 47.50040 | -53.37829 | 8388 ft | 267 kts | 60° |
| 2026-04-25 20:03 | 47.50809 | -53.35354 | 7992 ft | 264 kts | 60° |
| 2026-04-25 20:03 | 47.51568 | -53.32891 | 7459 ft | 261 kts | 60° |
| 2026-04-25 20:04 | 47.52321 | -53.30458 | 6957 ft | 259 kts | 60° |
| 2026-04-25 20:04 | 47.53074 | -53.28031 | 6588 ft | 258 kts | 60° |
| 2026-04-25 20:04 | 47.53820 | -53.25616 | 6098 ft | 256 kts | 60° |
| 2026-04-25 20:04 | 47.54547 | -53.23243 | 5654 ft | 250 kts | 60° |
| 2026-04-25 20:05 | 47.55265 | -53.20908 | 5163 ft | 249 kts | 60° |
| 2026-04-25 20:05 | 47.55981 | -53.18574 | 4669 ft | 248 kts | 60° |
| 2026-04-25 20:05 | 47.56690 | -53.16266 | 4326 ft | 242 kts | 60° |
| 2026-04-25 20:05 | 47.57368 | -53.14045 | 4197 ft | 232 kts | 60° |
| 2026-04-25 20:06 | 47.58024 | -53.11903 | 4053 ft | 224 kts | 60° |
| 2026-04-25 20:06 | 47.58639 | -53.09881 | 3930 ft | 209 kts | 60° |
| 2026-04-25 20:06 | 47.59213 | -53.07989 | 3822 ft | 192 kts | 59° |
| 2026-04-25 20:06 | 47.59739 | -53.06257 | 3683 ft | 177 kts | 58° |
| 2026-04-25 20:07 | 47.60232 | -53.04653 | 3521 ft | 166 kts | 58° |
| 2026-04-25 20:07 | 47.60710 | -53.03107 | 3264 ft | 163 kts | 58° |
| 2026-04-25 20:07 | 47.61097 | -53.01517 | 3048 ft | 168 kts | 75° |
| 2026-04-25 20:07 | 47.61219 | -52.99803 | 3013 ft | 170 kts | 77° |
| 2026-04-25 20:08 | 47.61323 | -52.98036 | 3022 ft | 173 kts | 78° |
| 2026-04-25 20:08 | 47.61418 | -52.96253 | 2932 ft | 173 kts | 78° |
| 2026-04-25 20:08 | 47.61504 | -52.94526 | 2750 ft | 163 kts | 81° |
| 2026-04-25 20:08 | 47.61586 | -52.92895 | 2568 ft | 151 kts | 82° |
| 2026-04-25 20:09 | 47.61660 | -52.91385 | 2365 ft | 144 kts | 84° |
| 2026-04-25 20:09 | 47.61735 | -52.89913 | 2159 ft | 142 kts | 90° |
| 2026-04-25 20:09 | 47.61809 | -52.88439 | 1966 ft | 146 kts | 92° |
| 2026-04-25 20:09 | 47.61892 | -52.86928 | 1772 ft | 150 kts | 79° |
| 2026-04-25 20:10 | 47.61966 | -52.85375 | 1587 ft | 152 kts | 80° |
| 2026-04-25 20:10 | 47.62039 | -52.83811 | 1384 ft | 153 kts | 78° |
| 2026-04-25 20:10 | 47.62116 | -52.82263 | 1183 ft | 149 kts | 77° |
| 2026-04-25 20:10 | 47.62164 | -52.81245 | 1048 ft | 150 kts | 81° |
| 2026-04-25 20:11 | 47.62237 | -52.79706 | 847 ft | 149 kts | 79° |
| 2026-04-25 20:11 | 47.62316 | -52.78156 | 669 ft | 154 kts | 79° |
| 2026-04-25 20:11 | 47.62389 | -52.76595 | 469 ft | 147 kts | 82° |
| 2026-04-25 20:11 | 47.62451 | -52.75359 | 452 ft | 79 kts | 85° |
| 2026-04-25 20:12 | 47.62470 | -52.74918 | 452 ft | 24 kts | 89° |
| 2026-04-25 20:12 | 47.62464 | -52.74796 | 453 ft | 3 kts | 58° |
| 2026-04-25 20:12 | 47.62475 | -52.74832 | 453 ft | 9 kts | 281° |
| 2026-04-25 20:12 | 47.62472 | -52.74921 | 452 ft | 15 kts | 264° |
| 2026-04-25 20:13 | 47.62389 | -52.74937 | 452 ft | 12 kts | 141° |
| 2026-04-25 20:13 | 47.62321 | -52.74849 | 453 ft | 14 kts | 138° |
| 2026-04-25 20:13 | 47.62236 | -52.74741 | 452 ft | 19 kts | 140° |
| 2026-04-25 20:13 | 47.62102 | -52.74572 | 451 ft | 33 kts | 140° |
| 2026-04-25 20:14 | 47.61892 | -52.74302 | 448 ft | 43 kts | 139° |
| 2026-04-25 20:14 | 47.61746 | -52.74112 | 448 ft | 20 kts | 139° |
| 2026-04-25 20:14 | 47.61657 | -52.74118 | 448 ft | 15 kts | 226° |
| 2026-04-25 20:14 | 47.61606 | -52.74206 | 449 ft | 12 kts | 230° |
| 2026-04-25 20:15 | 47.61544 | -52.74312 | 449 ft | 15 kts | 227° |
| 2026-04-25 20:15 | 47.61483 | -52.74359 | 449 ft | 9 kts | 193° |
| 2026-04-25 20:15 | 47.61432 | -52.74389 | 449 ft | 7 kts | 203° |
| 2026-04-25 20:15 | 47.61417 | -52.74398 | 449 ft | 0 kts | 201° |